createdAt,value
2023-01-22T00:01:08.832Z,101107.31
2023-01-22T00:03:36.256Z,101099.50
2023-01-22T00:06:03.812Z,101098.66
2023-01-22T00:08:31.139Z,101095.22
2023-01-22T00:10:58.460Z,101098.03
2023-01-22T00:13:26.558Z,101098.13
2023-01-22T00:15:53.884Z,101099.78
2023-01-22T00:18:22.497Z,101099.66
2023-01-22T00:20:49.854Z,101103.03
2023-01-22T00:23:17.516Z,101099.50
2023-01-22T00:25:45.117Z,101104.03
2023-01-22T00:28:12.700Z,101101.28
2023-01-22T00:30:40.249Z,101101.22
2023-01-22T00:33:07.565Z,101105.59
2023-01-22T00:35:36.169Z,101109.16
2023-01-22T00:38:04.871Z,101110.09
2023-01-22T00:40:32.183Z,101115.34
2023-01-22T00:42:59.446Z,101118.16
2023-01-22T00:45:26.791Z,101119.88
2023-01-22T00:47:54.091Z,101115.41
2023-01-22T00:50:21.385Z,101118.97
2023-01-22T00:52:49.985Z,101112.88
2023-01-22T00:55:17.280Z,101117.22
2023-01-22T00:57:44.628Z,101124.13
2023-01-22T01:00:14.630Z,101131.88
2023-01-22T01:02:56.170Z,101133.94
2023-01-22T01:05:23.459Z,101125.16
2023-01-22T01:07:52.093Z,101138.22
2023-01-22T01:10:19.960Z,101135.75
2023-01-22T01:12:47.487Z,101133.84
2023-01-22T01:15:14.755Z,101132.34
2023-01-22T01:17:42.058Z,101128.66
2023-01-22T01:20:10.066Z,101134.75
2023-01-22T01:22:37.373Z,101137.97
2023-01-22T01:25:06.341Z,101131.97
2023-01-22T01:27:33.624Z,101137.19
2023-01-22T01:30:00.907Z,101126.78
2023-01-22T01:32:28.174Z,101132.84
2023-01-22T01:34:55.456Z,101129.25
2023-01-22T01:37:22.757Z,101122.38
2023-01-22T01:39:52.393Z,101121.50
2023-01-22T01:42:29.107Z,101118.00
2023-01-22T01:45:15.033Z,101119.63
2023-01-22T01:47:42.303Z,101117.09
2023-01-22T01:50:09.910Z,101117.03
2023-01-22T01:52:37.350Z,101111.88
2023-01-22T01:55:05.237Z,101126.78
2023-01-22T01:57:35.023Z,101124.13
2023-01-22T02:00:05.628Z,101122.41
2023-01-22T02:02:32.915Z,101121.50
2023-01-22T02:05:00.249Z,101132.84
2023-01-22T02:07:27.581Z,101129.25
2023-01-22T02:09:54.952Z,101133.84
2023-01-22T02:12:22.235Z,101140.69
2023-01-22T02:14:51.236Z,101138.31
2023-01-22T02:17:20.359Z,101145.19
2023-01-22T02:19:47.998Z,101150.47
2023-01-22T02:22:18.370Z,101149.63
2023-01-22T02:24:45.861Z,101148.72
2023-01-22T02:27:13.176Z,101150.50
2023-01-22T02:29:40.510Z,101155.00
2023-01-22T02:32:08.260Z,101159.34
2023-01-22T02:34:35.557Z,101154.84
2023-01-22T02:37:02.848Z,101155.78
2023-01-22T02:39:31.454Z,101154.06
2023-01-22T02:41:59.466Z,101154.94
2023-01-22T02:44:26.774Z,101161.94
2023-01-22T02:46:54.087Z,101169.00
2023-01-22T02:49:21.362Z,101161.16
2023-01-22T02:51:48.655Z,101158.44
2023-01-22T02:54:15.954Z,101153.19
2023-01-22T02:56:44.616Z,101155.78
2023-01-22T02:59:11.910Z,101162.78
2023-01-22T03:01:39.218Z,101165.09
2023-01-22T03:04:10.969Z,101157.88
2023-01-22T03:06:39.583Z,101152.63
2023-01-22T03:09:07.045Z,101166.97
2023-01-22T03:11:36.008Z,101160.81
2023-01-22T03:14:22.654Z,101165.22
2023-01-22T03:17:07.445Z,101161.56
2023-01-22T03:19:52.257Z,101158.16
2023-01-22T03:22:19.926Z,101174.75
2023-01-22T03:24:50.366Z,101167.50
2023-01-22T03:27:18.020Z,101169.50
2023-01-22T03:29:46.728Z,101170.44
2023-01-22T03:32:14.437Z,101177.59
2023-01-22T03:34:42.211Z,101177.59
2023-01-22T03:37:12.707Z,101174.88
2023-01-22T03:39:40.447Z,101181.94
2023-01-22T03:42:08.376Z,101180.16
2023-01-22T03:44:35.696Z,101173.03
2023-01-22T03:47:04.329Z,101172.25
2023-01-22T03:49:31.661Z,101189.91
2023-01-22T03:51:58.958Z,101183.75
2023-01-22T03:54:26.254Z,101189.78
2023-01-22T03:56:53.537Z,101197.72
2023-01-22T03:59:20.935Z,101183.31
2023-01-22T04:01:48.258Z,101192.94
2023-01-22T04:04:16.898Z,101197.47
2023-01-22T04:06:44.206Z,101197.66
2023-01-22T04:09:11.524Z,101195.09
2023-01-22T04:11:38.836Z,101196.88
2023-01-22T04:14:06.142Z,101200.56
2023-01-22T04:16:33.474Z,101198.41
2023-01-22T04:19:00.855Z,101192.44
2023-01-22T04:21:29.464Z,101205.75
2023-01-22T04:23:57.394Z,101203.69
2023-01-22T04:26:24.984Z,101212.88
2023-01-22T04:28:52.615Z,101211.91
2023-01-22T04:31:19.994Z,101209.09
2023-01-22T04:33:47.316Z,101209.31
2023-01-22T04:36:14.671Z,101217.28
2023-01-22T04:38:43.328Z,101216.44
2023-01-22T04:41:10.634Z,101209.44
2023-01-22T04:43:37.899Z,101208.34
2023-01-22T04:46:05.322Z,101204.03
2023-01-22T04:48:32.666Z,101212.94
2023-01-22T04:51:00.023Z,101212.94
2023-01-22T04:53:27.344Z,101204.91
2023-01-22T04:55:56.012Z,101213.81
2023-01-22T04:58:23.350Z,101209.84
2023-01-22T05:00:50.657Z,101218.63
2023-01-22T05:03:17.942Z,101225.03
2023-01-22T05:05:45.288Z,101214.47
2023-01-22T05:08:12.619Z,101222.97
2023-01-22T05:10:39.934Z,101221.28
2023-01-22T05:13:09.156Z,101220.53
2023-01-22T05:15:36.545Z,101225.13
2023-01-22T05:18:04.008Z,101231.44
2023-01-22T05:20:31.404Z,101226.16
2023-01-22T05:22:59.127Z,101227.94
2023-01-22T05:25:26.564Z,101229.72
2023-01-22T05:27:53.862Z,101237.56
2023-01-22T05:30:22.747Z,101232.13
2023-01-22T05:32:50.115Z,101240.09
2023-01-22T05:35:17.598Z,101236.56
2023-01-22T05:37:44.985Z,101237.41
2023-01-22T05:40:12.904Z,101237.34
2023-01-22T05:42:40.290Z,101241.72
2023-01-22T05:45:08.399Z,101239.13
2023-01-22T05:47:37.024Z,101249.03
2023-01-22T05:50:04.823Z,101243.72
2023-01-22T05:52:32.279Z,101240.09
2023-01-22T05:54:59.897Z,101248.25
2023-01-22T05:57:29.668Z,101250.63
2023-01-22T05:59:56.934Z,101257.81
2023-01-22T06:02:24.307Z,101256.00
2023-01-22T06:04:52.949Z,101255.09
2023-01-22T06:07:20.256Z,101249.78
2023-01-22T06:09:47.552Z,101257.75
2023-01-22T06:12:15.826Z,101261.13
2023-01-22T06:14:43.129Z,101268.22
2023-01-22T06:17:10.417Z,101271.81
2023-01-22T06:19:37.698Z,101261.75
2023-01-22T06:22:06.323Z,101275.28
2023-01-22T06:24:33.636Z,101273.59
2023-01-22T06:27:00.919Z,101281.47
2023-01-22T06:29:28.192Z,101285.09
2023-01-22T06:31:55.518Z,101290.31
2023-01-22T06:34:22.884Z,101292.03
2023-01-22T06:36:50.144Z,101302.56
2023-01-22T06:39:18.710Z,101302.97
2023-01-22T06:41:47.858Z,101305.69
2023-01-22T06:44:15.144Z,101292.66
2023-01-22T06:46:42.475Z,101306.91
2023-01-22T06:49:10.311Z,101306.94
2023-01-22T06:51:37.593Z,101307.75
2023-01-22T06:54:04.990Z,101314.03
2023-01-22T06:56:33.613Z,101319.34
2023-01-22T06:59:00.877Z,101320.25
2023-01-22T07:01:28.145Z,101318.50
2023-01-22T07:03:55.440Z,101330.59
2023-01-22T07:06:23.631Z,101319.09
2023-01-22T07:08:50.899Z,101329.75
2023-01-22T07:11:18.157Z,101342.44
2023-01-22T07:13:46.717Z,101337.16
2023-01-22T07:16:14.039Z,101338.03
2023-01-22T07:18:41.327Z,101337.06
2023-01-22T07:21:08.596Z,101335.31
2023-01-22T07:23:35.859Z,101347.69
2023-01-22T07:26:03.271Z,101340.63
2023-01-22T07:28:30.522Z,101345.03
2023-01-22T07:30:59.175Z,101348.50
2023-01-22T07:33:26.742Z,101344.00
2023-01-22T07:35:54.954Z,101348.34
2023-01-22T07:38:22.207Z,101343.75
2023-01-22T07:40:49.528Z,101352.63
2023-01-22T07:43:17.722Z,101354.44
2023-01-22T07:45:45.263Z,101359.72
2023-01-22T07:48:13.916Z,101367.66
2023-01-22T07:50:41.203Z,101373.72
2023-01-22T07:53:08.644Z,101380.81
2023-01-22T07:55:35.950Z,101376.22
2023-01-22T07:58:04.557Z,101371.94
2023-01-22T08:00:32.066Z,101375.44
2023-01-22T08:02:59.367Z,101374.59
2023-01-22T08:05:27.938Z,101386.94
2023-01-22T08:07:55.192Z,101374.56
2023-01-22T08:10:22.463Z,101381.50
2023-01-22T08:12:49.772Z,101395.97
2023-01-22T08:15:17.159Z,101387.06
2023-01-22T08:17:44.404Z,101389.03
2023-01-22T08:20:12.103Z,101396.78
2023-01-22T08:22:40.699Z,101402.41
2023-01-22T08:25:08.251Z,101396.25
2023-01-22T08:27:36.035Z,101409.78
2023-01-22T08:30:04.005Z,101415.13
2023-01-22T08:33:51.388Z,101406.34
2023-01-22T08:36:18.759Z,101413.41
2023-01-22T08:38:46.153Z,101423.91
2023-01-22T08:41:13.537Z,101429.13
2023-01-22T08:43:40.880Z,101430.69
2023-01-22T08:46:08.298Z,101417.63
2023-01-22T08:48:36.246Z,101422.03
2023-01-22T08:51:05.394Z,101430.06
2023-01-22T08:53:32.845Z,101420.13
2023-01-22T08:56:00.448Z,101427.13
2023-01-22T08:58:27.967Z,101425.31
2023-01-22T09:00:55.650Z,101427.19
2023-01-22T09:03:23.654Z,101426.88
2023-01-22T09:05:51.846Z,101433.25
2023-01-22T09:08:21.729Z,101429.50
2023-01-22T09:10:49.710Z,101426.78
2023-01-22T09:13:17.413Z,101427.56
2023-01-22T09:15:45.046Z,101438.16
2023-01-22T09:18:12.671Z,101436.25
2023-01-22T09:20:40.403Z,101433.53
2023-01-22T09:23:08.018Z,101437.91
2023-01-22T09:25:36.698Z,101435.25
2023-01-22T09:28:04.981Z,101435.16
2023-01-22T09:30:33.202Z,101439.59
2023-01-22T09:33:00.754Z,101445.59
2023-01-22T09:35:29.109Z,101441.47
2023-01-22T09:37:56.930Z,101434.53
2023-01-22T09:40:27.482Z,101437.81
2023-01-22T09:43:05.050Z,101444.06
2023-01-22T09:45:35.218Z,101450.25
2023-01-22T09:48:07.304Z,101454.75
2023-01-22T09:50:35.666Z,101458.53
2023-01-22T09:53:06.269Z,101452.09
2023-01-22T09:55:39.729Z,101452.06
2023-01-22T09:58:15.547Z,101453.69
2023-01-22T10:00:48.336Z,101449.50
2023-01-22T10:03:23.064Z,101460.09
2023-01-22T10:05:54.448Z,101460.88
2023-01-22T10:08:24.255Z,101454.88
2023-01-22T10:10:52.538Z,101458.06
2023-01-22T10:13:24.282Z,101468.84
2023-01-22T10:15:53.596Z,101460.78
2023-01-22T10:18:33.936Z,101466.16
2023-01-22T10:21:05.562Z,101471.00
2023-01-22T10:23:35.143Z,101474.47
2023-01-22T10:26:17.181Z,101476.94
2023-01-22T10:28:49.001Z,101469.78
2023-01-22T10:31:24.859Z,101476.16
2023-01-22T10:33:57.163Z,101473.53
2023-01-22T10:36:24.745Z,101476.16
2023-01-22T10:39:02.728Z,101476.94
2023-01-22T10:41:31.920Z,101477.81
2023-01-22T10:44:11.501Z,101466.25
2023-01-22T10:46:38.983Z,101468.72
2023-01-22T10:49:08.290Z,101479.16
2023-01-22T10:51:39.497Z,101477.34
2023-01-22T10:54:21.878Z,101472.84
2023-01-22T10:56:49.805Z,101480.56
2023-01-22T10:59:22.978Z,101482.41
2023-01-22T11:01:57.345Z,101480.78
2023-01-22T11:04:29.733Z,101476.75
2023-01-22T11:07:00.961Z,101476.50
2023-01-22T11:09:38.565Z,101473.66
2023-01-22T11:12:13.753Z,101469.22
2023-01-22T11:14:43.069Z,101466.66
2023-01-22T11:17:18.772Z,101473.13
2023-01-22T11:19:52.775Z,101470.00
2023-01-22T11:22:28.574Z,101474.19
2023-01-22T11:24:56.040Z,101485.59
2023-01-22T11:27:55.370Z,101484.53
2023-01-22T11:30:38.292Z,101486.41
2023-01-22T11:33:17.893Z,101486.41
2023-01-22T11:35:52.329Z,101492.75
2023-01-22T11:38:28.810Z,101479.72
2023-01-22T11:41:20.724Z,101483.25
2023-01-22T11:44:03.362Z,101479.81
2023-01-22T11:46:49.512Z,101477.28
2023-01-22T11:49:26.932Z,101474.72
2023-01-22T11:52:08.046Z,101471.31
2023-01-22T11:54:50.570Z,101467.00
2023-01-22T11:57:22.264Z,101475.75
2023-01-22T12:00:03.098Z,101471.63
2023-01-22T12:02:47.485Z,101473.88
2023-01-22T12:05:27.565Z,101464.19
2023-01-22T12:08:08.958Z,101469.06
2023-01-22T12:10:52.964Z,101465.16
2023-01-22T12:13:37.938Z,101461.81
2023-01-22T12:16:13.159Z,101471.38
2023-01-22T12:19:06.159Z,101458.28
2023-01-22T12:21:49.481Z,101472.25
2023-01-22T12:24:25.003Z,101470.28
2023-01-22T12:26:58.467Z,101467.59
2023-01-22T12:29:30.749Z,101468.50
2023-01-22T12:32:04.869Z,101472.66
2023-01-22T12:34:39.869Z,101478.72
2023-01-22T12:37:08.683Z,101474.44
2023-01-22T12:39:39.887Z,101473.09
2023-01-22T12:42:23.763Z,101479.84
2023-01-22T12:45:06.525Z,101479.84
2023-01-22T12:47:42.177Z,101471.97
2023-01-22T12:50:19.647Z,101473.59
2023-01-22T12:52:57.955Z,101478.13
2023-01-22T12:55:31.747Z,101473.75
2023-01-22T12:57:59.788Z,101475.50
2023-01-22T13:00:30.505Z,101467.53
2023-01-22T13:02:59.080Z,101463.25
2023-01-22T13:05:45.500Z,101464.38
2023-01-22T13:08:37.262Z,101465.38
2023-01-22T13:11:07.295Z,101476.78
2023-01-22T13:13:40.740Z,101492.91
2023-01-22T13:16:19.926Z,101491.19
2023-01-22T13:18:50.083Z,101491.91
2023-01-22T13:21:24.609Z,101492.75
2023-01-22T13:23:52.378Z,101494.72
2023-01-22T13:26:22.054Z,101498.28
2023-01-22T13:28:54.837Z,101492.22
2023-01-22T13:31:22.352Z,101499.28
2023-01-22T13:33:54.277Z,101497.25
2023-01-22T13:36:23.476Z,101504.34
2023-01-22T13:38:56.531Z,101498.91
2023-01-22T13:41:31.314Z,101495.78
2023-01-22T13:44:02.844Z,101501.94
2023-01-22T13:46:30.671Z,101503.50
2023-01-22T13:49:07.114Z,101503.00
2023-01-22T13:51:36.818Z,101507.28
2023-01-22T13:54:05.924Z,101506.28
2023-01-22T13:56:33.516Z,101512.50
2023-01-22T13:59:16.037Z,101511.53
2023-01-22T14:01:43.766Z,101520.63
2023-01-22T14:04:27.166Z,101519.63
2023-01-22T14:06:56.316Z,101520.47
2023-01-22T14:09:28.888Z,101522.22
2023-01-22T14:11:56.938Z,101519.69
2023-01-22T14:14:24.584Z,101519.72
2023-01-22T14:16:52.604Z,101524.75
2023-01-22T14:19:20.001Z,101528.56
2023-01-22T14:21:47.357Z,101527.50
2023-01-22T14:24:16.029Z,101531.81
2023-01-22T14:26:43.493Z,101526.41
2023-01-22T14:29:12.833Z,101518.59
2023-01-22T14:31:40.364Z,101522.28
2023-01-22T14:34:07.941Z,101521.19
2023-01-22T14:36:35.299Z,101518.91
2023-01-22T14:39:02.753Z,101516.25
2023-01-22T14:41:31.429Z,101506.47
2023-01-22T14:43:58.805Z,101510.81
2023-01-22T14:46:26.168Z,101521.50
2023-01-22T14:48:53.674Z,101517.88
2023-01-22T14:51:21.124Z,101510.88
2023-01-22T14:53:48.551Z,101521.50
2023-01-22T14:56:15.937Z,101517.34
2023-01-22T14:58:44.701Z,101519.84
2023-01-22T15:01:16.749Z,101530.44
2023-01-22T15:03:44.147Z,101529.56
2023-01-22T15:06:11.504Z,101530.38
2023-01-22T15:08:38.890Z,101531.22
2023-01-22T15:11:06.424Z,101531.84
2023-01-22T15:13:34.353Z,101532.00
2023-01-22T15:16:08.253Z,101534.72
2023-01-22T15:18:36.277Z,101546.03
2023-01-22T15:21:04.632Z,101533.63
2023-01-22T15:23:32.486Z,101537.22
2023-01-22T15:26:01.151Z,101537.34
2023-01-22T15:28:30.783Z,101540.09
2023-01-22T15:31:07.369Z,101534.59
2023-01-22T15:33:37.985Z,101537.44
2023-01-22T15:36:06.074Z,101530.50
2023-01-22T15:38:33.394Z,101527.78
2023-01-22T15:41:05.583Z,101529.38
2023-01-22T15:43:33.555Z,101538.56
2023-01-22T15:46:00.893Z,101537.66
2023-01-22T15:48:28.334Z,101546.31
2023-01-22T15:51:06.933Z,101553.31
2023-01-22T15:53:34.353Z,101550.59
2023-01-22T15:56:02.354Z,101560.13
2023-01-22T15:58:29.632Z,101567.13
2023-01-22T16:00:57.470Z,101567.22
2023-01-22T16:03:24.921Z,101556.69
2023-01-22T16:05:52.339Z,101567.19
2023-01-22T16:08:21.577Z,101579.50
2023-01-22T16:10:48.970Z,101571.56
2023-01-22T16:13:16.341Z,101581.31
2023-01-22T16:15:43.731Z,101588.34
2023-01-22T16:18:11.097Z,101582.91
2023-01-22T16:20:38.448Z,101591.53
2023-01-22T16:23:06.857Z,101593.31
2023-01-22T16:25:35.536Z,101591.47
2023-01-22T16:28:02.910Z,101592.38
2023-01-22T16:30:30.279Z,101594.09
2023-01-22T16:32:57.676Z,101579.09
2023-01-22T16:35:25.082Z,101584.06
2023-01-22T16:37:52.488Z,101597.28
2023-01-22T16:40:20.151Z,101597.13
2023-01-22T16:42:59.248Z,101588.16
2023-01-22T16:45:26.640Z,101595.00
2023-01-22T16:47:53.981Z,101599.44
2023-01-22T16:50:21.383Z,101596.88
2023-01-22T16:52:48.757Z,101595.94
2023-01-22T16:55:16.141Z,101600.03
2023-01-22T16:57:43.505Z,101601.09
2023-01-22T17:00:13.385Z,101604.66
2023-01-22T17:02:40.795Z,101604.59
2023-01-22T17:05:12.850Z,101597.75
2023-01-22T17:07:40.251Z,101612.13
2023-01-22T17:10:08.892Z,101602.44
2023-01-22T17:12:36.249Z,101605.88
2023-01-22T17:15:03.636Z,101603.41
2023-01-22T17:17:32.343Z,101609.91
2023-01-22T17:19:59.740Z,101618.50
2023-01-22T17:22:27.373Z,101612.25
2023-01-22T17:24:54.906Z,101614.97
2023-01-22T17:27:22.313Z,101614.06
2023-01-22T17:29:49.831Z,101612.50
2023-01-22T17:32:17.256Z,101617.63
2023-01-22T17:37:38.279Z,101633.44
2023-01-22T17:40:06.925Z,101633.31
2023-01-22T17:42:34.432Z,101641.34
2023-01-22T17:45:01.867Z,101636.81
2023-01-22T17:47:29.442Z,101643.84
2023-01-22T17:49:58.158Z,101649.28
2023-01-22T17:52:25.536Z,101656.47
2023-01-22T17:54:53.918Z,101655.50
2023-01-22T17:57:21.343Z,101655.53
2023-01-22T17:59:48.912Z,101658.25
2023-01-22T18:02:16.286Z,101664.91
2023-01-22T18:04:43.624Z,101661.59
2023-01-22T18:07:12.598Z,101665.31
2023-01-22T18:09:40.008Z,101670.13
2023-01-22T18:12:07.601Z,101666.75
2023-01-22T18:14:35.309Z,101667.03
2023-01-22T18:17:02.757Z,101671.00
2023-01-22T18:19:30.163Z,101663.25
2023-01-22T18:21:57.541Z,101672.13
2023-01-22T18:24:26.760Z,101675.72
2023-01-22T18:26:54.820Z,101671.16
2023-01-22T18:29:22.246Z,101678.16
2023-01-22T18:31:49.686Z,101677.88
2023-01-22T18:34:17.089Z,101680.53
2023-01-22T18:36:44.533Z,101689.41
2023-01-22T18:39:14.883Z,101686.75
2023-01-22T18:41:44.980Z,101688.34
2023-01-22T18:44:14.482Z,101690.59
2023-01-22T18:46:47.940Z,101685.78
2023-01-22T18:49:19.426Z,101691.13
2023-01-22T18:51:47.601Z,101694.13
2023-01-22T18:54:15.498Z,101697.28
2023-01-22T18:56:44.217Z,101692.19
2023-01-22T18:59:12.917Z,101705.69
2023-01-22T19:01:42.716Z,101704.78
2023-01-22T19:04:17.948Z,101709.34
2023-01-22T19:06:48.208Z,101706.13
2023-01-22T19:09:16.135Z,101722.00
2023-01-22T19:11:47.840Z,101719.41
2023-01-22T19:14:17.089Z,101720.28
2023-01-22T19:16:48.094Z,101720.44
2023-01-22T19:19:16.816Z,101723.13
2023-01-22T19:21:47.061Z,101720.16
2023-01-22T19:24:16.274Z,101727.47
2023-01-22T19:26:46.785Z,101738.03
2023-01-22T19:29:17.165Z,101731.13
2023-01-22T19:31:46.789Z,101732.81
2023-01-22T19:34:23.029Z,101738.97
2023-01-22T19:36:52.047Z,101741.56
2023-01-22T19:39:20.160Z,101748.56
2023-01-22T19:41:49.124Z,101743.44
2023-01-22T19:44:16.565Z,101742.53
2023-01-22T19:46:44.205Z,101756.84
2023-01-22T19:49:13.589Z,101744.44
2023-01-22T19:51:41.081Z,101749.81
2023-01-22T19:54:08.816Z,101760.41
2023-01-22T19:56:39.880Z,101751.56
2023-01-22T19:59:12.257Z,101753.25
2023-01-22T20:01:40.029Z,101755.91
2023-01-22T20:04:12.427Z,101755.06
2023-01-22T20:06:40.966Z,101755.94
2023-01-22T20:09:08.345Z,101763.06
2023-01-22T20:11:35.719Z,101767.44
2023-01-22T20:14:03.346Z,101770.06
2023-01-22T20:16:32.082Z,101767.34
2023-01-22T20:18:59.549Z,101770.91
2023-01-22T20:21:27.823Z,101770.94
2023-01-22T20:23:55.311Z,101773.59
2023-01-22T20:26:23.852Z,101769.88
2023-01-22T20:28:51.935Z,101770.41
2023-01-22T20:31:23.405Z,101774.78
2023-01-22T20:33:53.279Z,101766.72
2023-01-22T20:36:22.097Z,101773.22
2023-01-22T20:38:52.820Z,101773.41
2023-01-22T20:41:21.414Z,101775.19
2023-01-22T20:43:48.909Z,101783.91
2023-01-22T20:46:18.131Z,101776.56
2023-01-22T20:48:45.779Z,101778.41
2023-01-22T20:51:17.051Z,101781.88
2023-01-22T20:53:45.396Z,101780.94
2023-01-22T20:56:15.173Z,101794.06
2023-01-22T20:58:43.116Z,101789.59
2023-01-22T21:01:14.450Z,101798.50
2023-01-22T21:03:42.390Z,101794.75
2023-01-22T21:06:13.850Z,101791.13
2023-01-22T21:08:47.621Z,101793.94
2023-01-22T21:11:17.772Z,101804.38
2023-01-22T21:13:45.208Z,101799.94
2023-01-22T21:16:14.663Z,101807.03
2023-01-22T21:18:44.373Z,101811.34
2023-01-22T21:21:13.158Z,101803.47
2023-01-22T21:23:40.872Z,101809.63
2023-01-22T21:26:12.734Z,101806.13
2023-01-22T21:28:40.507Z,101820.34
2023-01-22T21:31:09.343Z,101815.72
2023-01-22T21:33:37.224Z,101816.59
2023-01-22T21:36:05.931Z,101820.09
2023-01-22T21:38:33.437Z,101833.31
2023-01-22T21:41:05.567Z,101836.88
2023-01-22T21:43:52.402Z,101844.00
2023-01-22T22:00:54.667Z,101846.56
2023-01-22T22:03:22.568Z,101860.78
2023-01-22T22:05:56.017Z,101855.41
2023-01-22T22:08:23.403Z,101858.94
2023-01-22T22:10:50.979Z,101856.31
2023-01-22T22:13:18.648Z,101858.06
2023-01-22T22:15:46.682Z,101868.66
2023-01-22T22:18:15.512Z,101864.22
2023-01-22T22:20:42.890Z,101873.09
2023-01-22T22:23:10.374Z,101864.16
2023-01-22T22:25:37.766Z,101876.66
2023-01-22T22:28:05.628Z,101881.06
2023-01-22T22:30:33.055Z,101881.97
2023-01-22T22:33:00.408Z,101881.06
2023-01-22T22:35:29.073Z,101882.81
2023-01-22T22:37:56.618Z,101880.97
2023-01-22T22:40:24.111Z,101884.59
2023-01-22T22:42:51.460Z,101878.47
2023-01-22T22:45:18.829Z,101879.31
2023-01-22T22:47:46.187Z,101885.66
2023-01-22T22:50:13.583Z,101880.28
2023-01-22T22:52:43.388Z,101890.84
2023-01-22T22:55:11.253Z,101883.81
2023-01-22T22:57:38.645Z,101900.72
2023-01-22T23:00:11.770Z,101899.84
2023-01-22T23:02:39.145Z,101894.44
2023-01-22T23:05:07.589Z,101904.19
2023-01-22T23:07:34.928Z,101899.75
2023-01-22T23:10:03.655Z,101902.50
2023-01-22T23:12:31.181Z,101899.84
2023-01-22T23:14:58.555Z,101907.75
2023-01-22T23:17:25.982Z,101908.66
2023-01-22T23:19:53.377Z,101913.09
2023-01-22T23:22:20.765Z,101922.75
2023-01-22T23:24:48.104Z,101916.63
2023-01-22T23:27:16.815Z,101922.03
2023-01-22T23:29:44.153Z,101917.56
2023-01-22T23:32:11.527Z,101922.88
2023-01-22T23:34:38.874Z,101914.06
2023-01-22T23:37:06.309Z,101928.13
2023-01-22T23:39:33.675Z,101917.56
2023-01-22T23:42:01.021Z,101927.25
2023-01-22T23:44:29.723Z,101921.00
2023-01-22T23:46:57.091Z,101924.59
2023-01-22T23:49:24.543Z,101926.28
2023-01-22T23:51:51.913Z,101936.06
2023-01-22T23:54:19.291Z,101945.66
2023-01-22T23:56:46.680Z,101945.69
2023-01-22T23:59:14.047Z,101939.53
